sensor_id;sensor_type;location;lat;lon;timestamp;pressure;altitude;pressure_sealevel;temperature;humidity
4528;BME280;62320;51.520;6.818;2022-12-18T00:01:39;102422.00;;;-7.08;94.48
4528;BME280;62320;51.520;6.818;2022-12-18T00:11:41;102440.19;;;-7.02;93.57
4528;BME280;62320;51.520;6.818;2022-12-18T00:21:43;102423.03;;;-6.89;92.36
4528;BME280;62320;51.520;6.818;2022-12-18T00:31:45;102412.66;;;-6.83;92.75
4528;BME280;62320;51.520;6.818;2022-12-18T00:41:46;102418.44;;;-7.01;92.97
4528;BME280;62320;51.520;6.818;2022-12-18T00:52:06;102432.06;;;-7.08;93.92
4528;BME280;62320;51.520;6.818;2022-12-18T01:02:07;102412.97;;;-7.14;93.94
4528;BME280;62320;51.520;6.818;2022-12-18T01:12:09;102415.50;;;-7.23;94.02
4528;BME280;62320;51.520;6.818;2022-12-18T01:22:10;102416.53;;;-7.30;93.92
4528;BME280;62320;51.520;6.818;2022-12-18T01:32:11;102417.59;;;-7.36;93.29
4528;BME280;62320;51.520;6.818;2022-12-18T01:42:14;102403.38;;;-7.36;93.99
4528;BME280;62320;51.520;6.818;2022-12-18T01:52:18;102404.41;;;-7.34;93.41
4528;BME280;62320;51.520;6.818;2022-12-18T02:02:21;102399.69;;;-7.39;93.13
4528;BME280;62320;51.520;6.818;2022-12-18T02:12:25;102426.69;;;-7.54;93.08
4528;BME280;62320;51.520;6.818;2022-12-18T02:32:53;102399.22;;;-7.69;92.66
4528;BME280;62320;51.520;6.818;2022-12-18T02:42:55;102401.13;;;-7.75;93.55
4528;BME280;62320;51.520;6.818;2022-12-18T02:53:25;102396.69;;;-7.86;93.30
4528;BME280;62320;51.520;6.818;2022-12-18T03:03:46;102401.97;;;-7.83;93.26
4528;BME280;62320;51.520;6.818;2022-12-18T03:13:55;102396.06;;;-7.92;93.07
4528;BME280;62320;51.520;6.818;2022-12-18T03:23:59;102383.97;;;-7.88;92.39
4528;BME280;62320;51.520;6.818;2022-12-18T03:34:04;102387.94;;;-7.90;92.89
4528;BME280;62320;51.520;6.818;2022-12-18T03:44:13;102384.59;;;-7.82;92.03
4528;BME280;62320;51.520;6.818;2022-12-18T03:54:17;102380.41;;;-7.90;92.90
4528;BME280;62320;51.520;6.818;2022-12-18T04:04:21;102370.50;;;-7.97;93.09
4528;BME280;62320;51.520;6.818;2022-12-18T04:14:23;102366.97;;;-7.99;92.87
4528;BME280;62320;51.520;6.818;2022-12-18T04:24:24;102370.94;;;-8.10;92.80
4528;BME280;62320;51.520;6.818;2022-12-18T04:34:26;102362.56;;;-7.93;91.96
4528;BME280;62320;51.520;6.818;2022-12-18T04:44:27;102353.94;;;-8.12;92.61
4528;BME280;62320;51.520;6.818;2022-12-18T04:54:28;102351.75;;;-8.09;92.37
4528;BME280;62320;51.520;6.818;2022-12-18T05:04:30;102350.84;;;-8.10;93.27
4528;BME280;62320;51.520;6.818;2022-12-18T05:14:31;102334.00;;;-8.19;92.74
4528;BME280;62320;51.520;6.818;2022-12-18T05:24:32;102332.81;;;-8.23;92.89
4528;BME280;62320;51.520;6.818;2022-12-18T05:34:34;102342.09;;;-8.22;93.04
4528;BME280;62320;51.520;6.818;2022-12-18T05:44:35;102349.06;;;-8.28;92.67
4528;BME280;62320;51.520;6.818;2022-12-18T05:54:37;102359.94;;;-8.36;92.69
4528;BME280;62320;51.520;6.818;2022-12-18T06:04:38;102384.75;;;-8.39;93.17
4528;BME280;62320;51.520;6.818;2022-12-18T06:14:39;102395.91;;;-8.52;92.97
4528;BME280;62320;51.520;6.818;2022-12-18T06:24:41;102400.72;;;-8.54;92.32
4528;BME280;62320;51.520;6.818;2022-12-18T06:34:42;102389.56;;;-8.49;92.78
4528;BME280;62320;51.520;6.818;2022-12-18T06:44:44;102374.50;;;-8.49;92.82
4528;BME280;62320;51.520;6.818;2022-12-18T06:54:45;102355.81;;;-8.35;91.91
4528;BME280;62320;51.520;6.818;2022-12-18T07:04:49;102335.31;;;-8.40;93.04
4528;BME280;62320;51.520;6.818;2022-12-18T07:14:51;102340.44;;;-8.47;92.63
4528;BME280;62320;51.520;6.818;2022-12-18T07:24:52;102341.34;;;-8.46;92.61
4528;BME280;62320;51.520;6.818;2022-12-18T07:34:54;102327.91;;;-8.47;93.35
4528;BME280;62320;51.520;6.818;2022-12-18T07:44:56;102337.94;;;-8.47;93.23
4528;BME280;62320;51.520;6.818;2022-12-18T07:54:58;102340.91;;;-8.42;92.92
4528;BME280;62320;51.520;6.818;2022-12-18T08:04:59;102334.59;;;-8.39;92.94
4528;BME280;62320;51.520;6.818;2022-12-18T08:15:01;102320.75;;;-8.18;92.31
4528;BME280;62320;51.520;6.818;2022-12-18T08:25:03;102303.47;;;-8.15;92.86
4528;BME280;62320;51.520;6.818;2022-12-18T08:35:05;102274.56;;;-7.94;92.95
4528;BME280;62320;51.520;6.818;2022-12-18T08:45:07;102274.25;;;-7.80;94.14
4528;BME280;62320;51.520;6.818;2022-12-18T08:55:09;102285.03;;;-7.64;93.76
4528;BME280;62320;51.520;6.818;2022-12-18T09:05:11;102271.59;;;-7.48;94.68
4528;BME280;62320;51.520;6.818;2022-12-18T09:15:12;102261.19;;;-7.16;95.87
4528;BME280;62320;51.520;6.818;2022-12-18T09:25:14;102247.34;;;-6.94;95.88
4528;BME280;62320;51.520;6.818;2022-12-18T09:35:15;102258.38;;;-6.75;96.56
4528;BME280;62320;51.520;6.818;2022-12-18T09:45:17;102261.34;;;-6.52;96.44
4528;BME280;62320;51.520;6.818;2022-12-18T09:55:26;102251.22;;;-6.16;95.59
4528;BME280;62320;51.520;6.818;2022-12-18T10:05:40;102221.22;;;-5.86;95.11
4528;BME280;62320;51.520;6.818;2022-12-18T10:26:06;102203.13;;;-5.43;100.00
4528;BME280;62320;51.520;6.818;2022-12-18T10:36:08;102187.81;;;-5.06;100.00
4528;BME280;62320;51.520;6.818;2022-12-18T10:56:11;102166.03;;;-4.45;100.00
4528;BME280;62320;51.520;6.818;2022-12-18T11:06:18;102143.53;;;-4.22;100.00
4528;BME280;62320;51.520;6.818;2022-12-18T11:16:22;102137.91;;;-3.88;100.00
4528;BME280;62320;51.520;6.818;2022-12-18T11:26:34;102118.06;;;-3.30;100.00
4528;BME280;62320;51.520;6.818;2022-12-18T11:36:42;102102.94;;;-3.18;100.00
4528;BME280;62320;51.520;6.818;2022-12-18T11:46:52;102071.78;;;-2.84;100.00
4528;BME280;62320;51.520;6.818;2022-12-18T12:08:09;102070.38;;;-2.11;100.00
4528;BME280;62320;51.520;6.818;2022-12-18T12:38:53;102051.13;;;-0.74;89.22
4528;BME280;62320;51.520;6.818;2022-12-18T12:48:58;102034.25;;;-0.60;89.37
4528;BME280;62320;51.520;6.818;2022-12-18T12:59:18;102029.47;;;-0.43;87.96
4528;BME280;62320;51.520;6.818;2022-12-18T13:09:22;102029.66;;;-0.27;86.14
4528;BME280;62320;51.520;6.818;2022-12-18T13:19:25;102009.31;;;-0.01;84.18
4528;BME280;62320;51.520;6.818;2022-12-18T13:29:53;101992.66;;;0.05;83.99
4528;BME280;62320;51.520;6.818;2022-12-18T13:39:55;101978.53;;;0.10;83.32
4528;BME280;62320;51.520;6.818;2022-12-18T13:49:57;101945.97;;;0.17;83.94
4528;BME280;62320;51.520;6.818;2022-12-18T14:00:28;101941.78;;;0.32;81.50
4528;BME280;62320;51.520;6.818;2022-12-18T14:10:30;101934.06;;;0.31;82.03
4528;BME280;62320;51.520;6.818;2022-12-18T14:20:52;101927.81;;;0.11;87.14
4528;BME280;62320;51.520;6.818;2022-12-18T14:30:54;101911.69;;;0.25;83.31
4528;BME280;62320;51.520;6.818;2022-12-18T14:41:11;101902.44;;;0.40;80.42
4528;BME280;62320;51.520;6.818;2022-12-18T14:51:19;101901.75;;;0.43;79.06
4528;BME280;62320;51.520;6.818;2022-12-18T15:01:36;101892.09;;;0.52;77.92
4528;BME280;62320;51.520;6.818;2022-12-18T15:21:43;101882.19;;;0.56;76.56
4528;BME280;62320;51.520;6.818;2022-12-18T15:32:15;101871.88;;;0.55;78.25
4528;BME280;62320;51.520;6.818;2022-12-18T15:42:19;101865.06;;;0.54;77.61
4528;BME280;62320;51.520;6.818;2022-12-18T15:52:42;101862.75;;;0.73;80.17
4528;BME280;62320;51.520;6.818;2022-12-18T16:02:45;101860.06;;;0.70;80.50
4528;BME280;62320;51.520;6.818;2022-12-18T16:12:46;101869.53;;;0.58;83.56
4528;BME280;62320;51.520;6.818;2022-12-18T16:22:49;101881.00;;;0.66;78.02
4528;BME280;62320;51.520;6.818;2022-12-18T16:32:50;101870.41;;;0.58;78.96
4528;BME280;62320;51.520;6.818;2022-12-18T16:42:52;101853.66;;;0.62;77.70
4528;BME280;62320;51.520;6.818;2022-12-18T16:52:53;101851.03;;;0.60;77.86
4528;BME280;62320;51.520;6.818;2022-12-18T17:02:54;101831.38;;;0.58;78.16
4528;BME280;62320;51.520;6.818;2022-12-18T17:12:56;101823.03;;;0.60;78.56
4528;BME280;62320;51.520;6.818;2022-12-18T17:22:57;101819.34;;;0.55;79.33
4528;BME280;62320;51.520;6.818;2022-12-18T17:33:00;101813.09;;;0.50;79.97
4528;BME280;62320;51.520;6.818;2022-12-18T17:43:01;101799.78;;;0.54;80.85
4528;BME280;62320;51.520;6.818;2022-12-18T17:53:03;101828.47;;;0.52;81.81
4528;BME280;62320;51.520;6.818;2022-12-18T18:03:04;101831.72;;;0.49;81.85
4528;BME280;62320;51.520;6.818;2022-12-18T18:13:17;101821.44;;;0.48;82.31
4528;BME280;62320;51.520;6.818;2022-12-18T18:23:46;101844.81;;;0.41;82.78
4528;BME280;62320;51.520;6.818;2022-12-18T18:33:49;101831.81;;;0.36;82.35
4528;BME280;62320;51.520;6.818;2022-12-18T18:43:55;101827.50;;;0.35;82.70
4528;BME280;62320;51.520;6.818;2022-12-18T18:53:57;101840.22;;;0.35;82.32
4528;BME280;62320;51.520;6.818;2022-12-18T19:04:00;101844.34;;;0.33;82.16
4528;BME280;62320;51.520;6.818;2022-12-18T19:14:04;101835.91;;;0.34;82.57
4528;BME280;62320;51.520;6.818;2022-12-18T19:24:06;101823.81;;;0.30;82.33
4528;BME280;62320;51.520;6.818;2022-12-18T19:34:09;101818.03;;;0.33;82.84
4528;BME280;62320;51.520;6.818;2022-12-18T19:44:16;101802.16;;;0.37;82.29
4528;BME280;62320;51.520;6.818;2022-12-18T19:54:17;101797.94;;;0.37;82.24
4528;BME280;62320;51.520;6.818;2022-12-18T20:04:19;101800.56;;;0.39;82.77
4528;BME280;62320;51.520;6.818;2022-12-18T20:14:20;101813.09;;;0.50;81.52
4528;BME280;62320;51.520;6.818;2022-12-18T20:24:23;101808.72;;;0.48;82.65
4528;BME280;62320;51.520;6.818;2022-12-18T20:34:25;101812.66;;;0.57;81.84
4528;BME280;62320;51.520;6.818;2022-12-18T20:44:27;101807.56;;;0.57;83.30
4528;BME280;62320;51.520;6.818;2022-12-18T20:54:29;101812.84;;;0.60;83.67
4528;BME280;62320;51.520;6.818;2022-12-18T21:04:30;101809.41;;;0.60;84.30
4528;BME280;62320;51.520;6.818;2022-12-18T21:14:32;101808.66;;;0.61;85.52
4528;BME280;62320;51.520;6.818;2022-12-18T21:24:33;101805.41;;;0.63;85.10
4528;BME280;62320;51.520;6.818;2022-12-18T21:34:35;101806.34;;;0.65;86.06
4528;BME280;62320;51.520;6.818;2022-12-18T21:44:37;101813.03;;;0.63;86.62
4528;BME280;62320;51.520;6.818;2022-12-18T21:54:42;101797.84;;;0.65;86.90
4528;BME280;62320;51.520;6.818;2022-12-18T22:04:44;101777.56;;;0.66;87.35
4528;BME280;62320;51.520;6.818;2022-12-18T22:14:47;101747.19;;;0.69;88.50
4528;BME280;62320;51.520;6.818;2022-12-18T22:24:48;101727.00;;;0.73;89.20
4528;BME280;62320;51.520;6.818;2022-12-18T22:34:49;101728.81;;;0.75;89.46
4528;BME280;62320;51.520;6.818;2022-12-18T22:44:51;101723.38;;;0.84;90.04
4528;BME280;62320;51.520;6.818;2022-12-18T22:54:52;101706.66;;;0.89;91.03
4528;BME280;62320;51.520;6.818;2022-12-18T23:04:54;101695.22;;;0.97;91.75
4528;BME280;62320;51.520;6.818;2022-12-18T23:14:56;101680.59;;;0.93;92.98
4528;BME280;62320;51.520;6.818;2022-12-18T23:24:57;101647.72;;;0.97;94.64
4528;BME280;62320;51.520;6.818;2022-12-18T23:34:59;101640.31;;;1.02;95.38
4528;BME280;62320;51.520;6.818;2022-12-18T23:45:00;101625.91;;;1.02;94.94
4528;BME280;62320;51.520;6.818;2022-12-18T23:55:09;101627.97;;;1.09;96.40
